Time;durP1;ratioP1;P1;durP2;ratioP2;P2;SDS_P1;SDS_P2;PMS_P1;PMS_P2;Temp;Humidity;BMP_temperature;BMP_pressure;BME280_temperature;BME280_humidity;BME280_pressure;Samples;Min_cycle;Max_cycle;Signal;HPM_P1;HPM_P2
2022/05/05 00:00:58;;;;;;;11.85;3.47;;;;;;;20.27;47.23;101145.44;4975143;28;20027;-53
2022/05/05 00:03:24;;;;;;;11.60;3.53;;;;;;;20.04;46.71;101151.25;4975225;28;20035;-54
2022/05/05 00:05:51;;;;;;;10.52;3.30;;;;;;;19.83;47.52;101144.88;4974806;28;20151;-54
2022/05/05 00:08:17;;;;;;;12.68;3.88;;;;;;;19.63;48.14;101148.22;4979421;28;20030;-55
2022/05/05 00:16:17;;;;;;;15.48;4.40;;;;;;;19.65;48.31;101132.47;4974231;28;20070;-53
2022/05/05 00:18:47;;;;;;;13.30;4.00;;;;;;;19.31;48.78;101137.31;4979927;28;20030;-54
2022/05/05 00:21:14;;;;;;;12.82;3.63;;;;;;;19.35;49.93;101134.91;5003808;23;20077;-53
2022/05/05 00:23:40;;;;;;;20.33;4.25;;;;;;;19.44;48.60;101136.91;5013419;28;20033;-55
2022/05/05 00:26:07;;;;;;;9.73;3.67;;;;;;;19.24;49.11;101134.00;4995601;28;20137;-54
2022/05/05 00:28:33;;;;;;;18.17;5.18;;;;;;;19.05;50.39;101130.81;5005645;28;20348;-54
2022/05/05 00:30:59;;;;;;;17.60;4.75;;;;;;;19.30;49.79;101132.16;5005234;28;20052;-55
2022/05/05 00:33:26;;;;;;;14.43;3.63;;;;;;;19.34;48.64;101127.84;4996844;28;20037;-56
2022/05/05 00:35:52;;;;;;;13.18;4.05;;;;;;;19.05;49.84;101130.81;5001106;28;20018;-56
2022/05/05 00:38:18;;;;;;;10.98;3.80;;;;;;;19.08;49.40;101126.75;4996753;28;20450;-55
2022/05/05 00:40:44;;;;;;;17.13;3.75;;;;;;;18.68;50.42;101112.50;5003346;28;20042;-55
2022/05/05 00:43:11;;;;;;;15.20;4.03;;;;;;;18.58;50.49;101109.63;5014118;28;20033;-55
2022/05/05 00:45:38;;;;;;;15.20;3.75;;;;;;;18.56;51.25;101113.69;5003453;28;20045;-55
2022/05/05 00:48:08;;;;;;;13.43;3.75;;;;;;;18.48;50.49;101104.91;5007226;28;20467;-55
2022/05/05 00:50:36;;;;;;;11.02;3.63;;;;;;;18.48;50.96;101106.78;5006239;28;20030;-54
2022/05/05 00:53:04;;;;;;;14.80;4.00;;;;;;;18.42;51.24;101105.91;5000213;28;20475;-54
2022/05/05 00:55:37;;;;;;;16.02;3.78;;;;;;;18.28;51.86;101109.25;5010314;28;20030;-55
2022/05/05 00:58:05;;;;;;;10.48;3.58;;;;;;;18.19;51.98;101109.66;4996090;28;20038;-54
2022/05/05 01:00:34;;;;;;;14.65;3.97;;;;;;;17.98;52.38;101112.34;4993193;28;20019;-55
2022/05/05 01:03:01;;;;;;;15.80;4.45;;;;;;;17.77;53.48;101114.75;4995909;28;20034;-55
2022/05/05 01:05:29;;;;;;;14.90;3.97;;;;;;;17.84;53.23;101109.97;4991841;28;20027;-54
2022/05/05 01:07:58;;;;;;;14.07;4.00;;;;;;;17.33;54.59;101116.44;4997774;28;20033;-53
2022/05/05 01:10:26;;;;;;;20.15;4.60;;;;;;;17.46;54.14;101113.41;5049032;28;20086;-53
2022/05/05 01:12:52;;;;;;;10.68;3.90;;;;;;;17.56;52.82;101104.63;5043957;28;20028;-53
2022/05/05 01:15:19;;;;;;;11.52;3.47;;;;;;;17.42;53.24;101117.66;5048471;28;20458;-54
2022/05/05 01:17:45;;;;;;;11.98;3.60;;;;;;;17.22;54.44;101120.00;5032307;28;20029;-53
2022/05/05 01:20:17;;;;;;;10.57;4.18;;;;;;;17.11;54.88;101117.13;5033849;28;20506;-53
2022/05/05 01:22:44;;;;;;;10.68;3.53;;;;;;;17.07;54.81;101107.03;5012028;28;20026;-53
2022/05/05 01:28:13;;;;;;;15.27;3.88;;;;;;;16.45;55.50;101107.69;5034354;28;20121;-54
2022/05/05 01:30:40;;;;;;;10.55;3.55;;;;;;;16.46;56.32;101116.59;5024630;28;20109;-54
2022/05/05 01:33:18;;;;;;;10.88;3.63;;;;;;;16.26;57.29;101103.47;5039882;28;20465;-53
2022/05/05 01:35:47;;;;;;;12.68;3.30;;;;;;;16.22;57.07;101123.94;5035934;28;20084;-53
2022/05/05 01:38:16;;;;;;;12.50;3.40;;;;;;;16.18;57.25;101120.88;5012886;28;20018;-53
2022/05/05 01:40:46;;;;;;;11.93;3.28;;;;;;;16.08;57.38;101118.75;5012661;28;20029;-53
2022/05/05 01:43:14;;;;;;;13.15;3.70;;;;;;;15.96;57.88;101122.53;5030857;28;20020;-54
2022/05/05 01:45:40;;;;;;;12.52;3.17;;;;;;;16.02;58.08;101124.28;5008488;28;20042;-55
2022/05/05 01:48:07;;;;;;;9.63;3.50;;;;;;;15.95;57.95;101113.59;5023963;28;20098;-54
2022/05/05 01:50:34;;;;;;;15.52;4.10;;;;;;;15.96;58.08;101120.63;5016870;28;20371;-53
2022/05/05 01:53:01;;;;;;;9.23;3.30;;;;;;;15.23;59.98;101121.78;5022842;28;20037;-53
2022/05/05 01:55:30;;;;;;;12.95;3.88;;;;;;;15.05;61.11;101136.16;5022221;28;20033;-52
2022/05/05 01:57:57;;;;;;;11.90;3.92;;;;;;;15.12;61.15;101141.44;5025287;28;20385;-53
2022/05/05 02:00:24;;;;;;;8.43;2.63;;;;;;;14.70;62.33;101144.03;5041515;28;20505;-53
2022/05/05 02:02:51;;;;;;;10.65;3.30;;;;;;;14.55;63.14;101146.31;5032811;28;20026;-52
2022/05/05 02:05:17;;;;;;;15.43;4.28;;;;;;;14.03;64.94;101144.94;5023639;28;20033;-53
2022/05/05 02:07:45;;;;;;;9.48;3.53;;;;;;;13.79;65.75;101152.00;5018773;28;20264;-52
2022/05/05 02:10:14;;;;;;;9.52;2.97;;;;;;;13.69;66.45;101156.00;5034416;28;20056;-52
2022/05/05 02:12:42;;;;;;;10.13;3.47;;;;;;;13.70;66.39;101159.50;5023002;28;20034;-53
2022/05/05 02:15:10;;;;;;;12.57;4.05;;;;;;;13.64;66.91;101150.44;5045774;28;20468;-52
2022/05/05 02:17:39;;;;;;;12.45;3.30;;;;;;;13.56;66.64;101150.72;5022269;28;20100;-53
2022/05/05 02:20:07;;;;;;;11.13;3.40;;;;;;;13.43;67.24;101159.69;5020628;28;20076;-52
2022/05/05 02:22:33;;;;;;;8.60;3.05;;;;;;;13.30;67.58;101159.78;5022216;28;20098;-53
2022/05/05 02:25:00;;;;;;;12.50;3.38;;;;;;;13.16;68.28;101161.69;5045431;28;20040;-53
2022/05/05 02:27:26;;;;;;;9.98;3.45;;;;;;;13.19;68.29;101163.13;5034862;28;20045;-54
2022/05/05 02:29:53;;;;;;;9.60;3.70;;;;;;;12.93;69.46;101158.69;5022621;28;20366;-52
2022/05/05 02:32:20;;;;;;;14.50;3.75;;;;;;;12.58;70.70;101172.47;5015015;28;20045;-52
2022/05/05 02:34:47;;;;;;;12.70;4.22;;;;;;;12.46;70.41;101178.69;5014997;28;20073;-52
2022/05/05 02:39:59;;;;;;;17.05;3.58;;;;;;;12.49;71.49;101183.63;5045059;28;20091;-52
2022/05/05 02:42:26;;;;;;;11.75;3.80;;;;;;;12.25;71.93;101177.06;5022573;28;20102;-52
2022/05/05 02:44:52;;;;;;;11.70;3.65;;;;;;;12.35;71.47;101172.94;5013694;28;20494;-52
2022/05/05 02:47:18;;;;;;;13.32;3.67;;;;;;;11.79;73.71;101184.09;5028807;28;20030;-52
2022/05/05 02:49:45;;;;;;;14.18;3.88;;;;;;;11.94;73.16;101185.75;5020521;28;20034;-52
2022/05/05 02:52:11;;;;;;;13.48;3.95;;;;;;;12.07;72.66;101188.47;5015249;28;20025;-52
2022/05/05 02:54:54;;;;;;;21.45;5.10;;;;;;;12.10;72.80;101188.03;5015105;28;20033;-52
2022/05/05 02:57:23;;;;;;;11.95;4.22;;;;;;;11.76;73.56;101200.56;5028874;28;20029;-53
2022/05/05 02:59:55;;;;;;;13.50;3.72;;;;;;;11.80;73.58;101201.81;5044669;28;20562;-52
2022/05/05 03:02:22;;;;;;;11.88;4.65;;;;;;;11.82;74.05;101207.00;5015443;28;20129;-52
2022/05/05 03:04:48;;;;;;;13.60;4.78;;;;;;;11.81;74.07;101197.28;5014684;28;20033;-53
2022/05/05 03:07:15;;;;;;;14.88;4.78;;;;;;;11.72;73.88;101195.84;5014858;28;20022;-53
2022/05/05 03:09:42;;;;;;;15.63;4.00;;;;;;;11.84;73.25;101196.91;5014693;28;20479;-52
2022/05/05 03:12:10;;;;;;;15.15;4.53;;;;;;;11.80;73.69;101192.97;5014195;28;20053;-53
2022/05/05 03:14:37;;;;;;;13.40;4.20;;;;;;;11.72;74.36;101193.16;5014731;28;20191;-52
2022/05/05 03:17:04;;;;;;;15.20;4.05;;;;;;;11.77;74.34;101194.22;5015073;28;20030;-52
2022/05/05 03:19:30;;;;;;;15.05;4.95;;;;;;;11.58;74.84;101192.31;5015371;28;20171;-53
2022/05/05 03:21:57;;;;;;;17.48;5.82;;;;;;;11.78;73.93;101187.81;5014509;28;20077;-53
2022/05/05 03:24:24;;;;;;;15.65;5.07;;;;;;;11.74;74.23;101199.16;5014762;28;20185;-53
2022/05/05 03:26:50;;;;;;;17.17;5.38;;;;;;;11.77;74.30;101201.41;5014668;28;20083;-53
2022/05/05 03:29:16;;;;;;;14.82;4.40;;;;;;;11.65;74.26;101206.53;5014608;28;20050;-53
2022/05/05 03:31:42;;;;;;;15.93;5.00;;;;;;;11.69;74.12;101204.28;5020054;28;20032;-52
2022/05/05 03:34:09;;;;;;;15.73;4.65;;;;;;;11.53;74.65;101205.50;5034245;28;20033;-53
2022/05/05 03:36:36;;;;;;;19.27;4.30;;;;;;;11.62;74.14;101196.25;5019393;28;20038;-52
2022/05/05 03:39:02;;;;;;;21.75;4.47;;;;;;;11.57;73.84;101201.38;5013509;28;20041;-52
2022/05/05 03:41:29;;;;;;;16.10;4.97;;;;;;;11.66;73.17;101212.72;5013864;28;20022;-52
2022/05/05 03:43:55;;;;;;;16.80;4.22;;;;;;;11.58;74.00;101216.44;5014114;28;20030;-52
2022/05/05 03:46:21;;;;;;;17.20;4.70;;;;;;;11.57;74.02;101215.63;5013892;28;20394;-52
2022/05/05 03:48:48;;;;;;;15.13;5.05;;;;;;;11.60;73.58;101219.72;5013996;28;20372;-53
2022/05/05 03:51:14;;;;;;;19.83;4.88;;;;;;;11.67;73.21;101220.59;5013956;28;20030;-53
2022/05/05 03:53:40;;;;;;;22.63;4.95;;;;;;;11.56;74.08;101227.38;5013710;28;20391;-53
2022/05/05 03:56:07;;;;;;;16.42;5.25;;;;;;;11.67;73.91;101228.63;5013169;28;20121;-53
2022/05/05 03:58:33;;;;;;;17.08;6.00;;;;;;;11.71;73.31;101227.19;5013504;28;20030;-52
2022/05/05 04:00:59;;;;;;;17.25;5.32;;;;;;;11.57;73.81;101231.69;5013890;28;20034;-52
2022/05/05 04:03:31;;;;;;;16.27;5.20;;;;;;;11.62;73.79;101226.56;5024054;28;20441;-53
2022/05/05 04:06:05;;;;;;;15.10;4.68;;;;;;;11.48;74.49;101238.28;5032862;28;20025;-51
2022/05/05 04:08:33;;;;;;;16.17;4.53;;;;;;;11.46;74.12;101232.28;5031234;28;20025;-53
2022/05/05 04:11:00;;;;;;;24.77;6.10;;;;;;;11.47;74.58;101227.75;5027416;28;20030;-53
2022/05/05 04:13:27;;;;;;;17.90;4.70;;;;;;;11.26;75.62;101229.53;5013036;28;20132;-53
2022/05/05 04:15:53;;;;;;;19.17;4.78;;;;;;;11.44;74.73;101237.03;5013547;28;20026;-53
2022/05/05 04:18:20;;;;;;;17.38;5.03;;;;;;;11.42;74.91;101241.75;5013162;28;20034;-53
2022/05/05 04:20:47;;;;;;;21.08;4.97;;;;;;;11.32;75.21;101247.50;5013031;28;20096;-52
2022/05/05 04:23:14;;;;;;;12.55;4.38;;;;;;;11.26;75.60;101253.66;5013249;28;20478;-53
2022/05/05 04:25:41;;;;;;;18.98;4.90;;;;;;;10.99;76.48;101249.22;5012863;28;20076;-52
2022/05/05 04:28:12;;;;;;;24.20;4.72;;;;;;;11.14;76.20;101249.91;5019982;28;20057;-52
2022/05/05 04:30:39;;;;;;;20.80;4.97;;;;;;;11.06;77.20;101237.53;5023751;28;20053;-52
2022/05/05 04:33:07;;;;;;;22.80;5.60;;;;;;;11.26;76.29;101232.22;5012946;28;20129;-52
2022/05/05 04:35:35;;;;;;;19.27;5.47;;;;;;;11.31;75.88;101251.22;5026117;28;20377;-54
2022/05/05 04:38:01;;;;;;;21.65;4.38;;;;;;;11.31;75.66;101250.38;5052337;28;20550;-53
2022/05/05 04:40:27;;;;;;;17.63;5.00;;;;;;;11.35;75.63;101257.81;5052331;28;20031;-53
2022/05/05 04:42:54;;;;;;;16.90;4.30;;;;;;;11.26;75.76;101259.03;5052623;28;20108;-53
2022/05/05 04:45:20;;;;;;;19.55;4.70;;;;;;;11.39;75.04;101252.91;5033712;28;20034;-51
2022/05/05 04:47:46;;;;;;;16.88;4.82;;;;;;;11.48;75.09;101256.22;5012780;28;20040;-52
2022/05/05 04:50:12;;;;;;;21.88;5.63;;;;;;;11.23;76.12;101256.75;5012482;28;20140;-53
2022/05/05 04:52:39;;;;;;;10.10;4.38;;;;;;;11.27;75.97;101255.34;5012389;28;20034;-51
2022/05/05 04:55:05;;;;;;;14.85;5.32;;;;;;;11.34;75.34;101244.63;5012591;28;20404;-52
2022/05/05 04:57:31;;;;;;;15.95;5.07;;;;;;;11.26;75.78;101250.97;5012413;28;20534;-52
2022/05/05 04:59:59;;;;;;;16.42;4.68;;;;;;;11.29;75.52;101247.09;5012365;28;20034;-53
2022/05/05 05:02:25;;;;;;;16.00;4.40;;;;;;;11.26;75.70;101252.84;5013060;28;20105;-53
2022/05/05 05:04:52;;;;;;;16.45;4.28;;;;;;;11.26;75.89;101258.19;5011785;28;20026;-52
2022/05/05 05:07:18;;;;;;;15.88;4.13;;;;;;;11.31;75.83;101253.06;5022267;28;20116;-53
2022/05/05 05:09:44;;;;;;;18.55;5.28;;;;;;;11.06;77.19;101261.63;5026039;28;20044;-52
2022/05/05 05:12:11;;;;;;;15.77;5.32;;;;;;;11.12;76.43;101264.53;5013940;28;20045;-52
2022/05/05 05:14:37;;;;;;;16.20;4.57;;;;;;;11.24;75.47;101266.44;5012264;28;20026;-53
2022/05/05 05:17:03;;;;;;;14.70;5.07;;;;;;;11.28;75.46;101272.25;5012758;28;20160;-53
2022/05/05 05:19:29;;;;;;;16.58;4.90;;;;;;;11.24;75.28;101287.88;5013303;28;20501;-51
2022/05/05 05:21:56;;;;;;;16.33;4.95;;;;;;;11.19;75.14;101286.81;5012319;28;20058;-53
2022/05/05 05:24:22;;;;;;;17.42;5.72;;;;;;;11.10;75.86;101291.50;5012698;28;20029;-53
2022/05/05 05:26:48;;;;;;;19.52;5.05;;;;;;;11.09;76.08;101306.75;5025378;28;20063;-52
2022/05/05 05:29:14;;;;;;;12.15;4.35;;;;;;;11.04;75.96;101303.84;5025913;28;20083;-52
2022/05/05 05:31:41;;;;;;;15.57;4.72;;;;;;;11.04;76.42;101308.38;5032056;28;20099;-52
2022/05/05 05:34:07;;;;;;;12.40;4.70;;;;;;;11.07;76.25;101313.34;5031582;28;20143;-52
2022/05/05 05:36:33;;;;;;;14.98;4.97;;;;;;;11.11;75.73;101314.63;5020801;28;20025;-53
2022/05/05 05:38:59;;;;;;;14.88;5.05;;;;;;;10.96;76.85;101303.19;5012367;28;20076;-53
2022/05/05 05:41:26;;;;;;;15.15;4.80;;;;;;;10.99;76.83;101309.00;5012580;28;20185;-51
2022/05/05 05:43:52;;;;;;;21.58;5.00;;;;;;;11.20;75.93;101301.88;5012124;28;20121;-53
2022/05/05 05:46:18;;;;;;;14.82;4.78;;;;;;;11.22;75.01;101310.56;5015111;28;20025;-52
2022/05/05 05:48:44;;;;;;;15.82;3.90;;;;;;;11.24;74.46;101309.31;5032145;28;20052;-52
2022/05/05 05:51:10;;;;;;;18.15;4.35;;;;;;;11.21;74.38;101295.47;5031716;28;20044;-52
2022/05/05 05:53:37;;;;;;;18.70;4.65;;;;;;;11.17;74.57;101299.59;5020445;28;20068;-53
2022/05/05 05:56:03;;;;;;;14.05;4.90;;;;;;;11.13;75.55;101307.19;5011530;28;20068;-53
2022/05/05 05:58:29;;;;;;;21.58;5.00;;;;;;;10.95;76.74;101297.00;5011912;28;20022;-53
2022/05/05 06:00:56;;;;;;;16.67;5.40;;;;;;;10.86;77.49;101300.03;5011893;28;20037;-52
2022/05/05 06:06:07;;;;;;;11.07;4.22;;;;;;;10.77;77.79;101299.34;5011320;28;20509;-50
2022/05/05 06:08:33;;;;;;;12.73;4.03;;;;;;;10.75;77.08;101299.53;5011594;28;20121;-51
2022/05/05 06:10:59;;;;;;;16.20;4.10;;;;;;;10.79;76.99;101300.00;5030874;28;20021;-52
2022/05/05 06:13:25;;;;;;;10.68;4.07;;;;;;;10.73;76.68;101288.22;5051347;28;20037;-51
2022/05/05 06:15:52;;;;;;;13.45;3.85;;;;;;;10.78;77.11;101280.44;5050844;28;20021;-52
2022/05/05 06:18:18;;;;;;;16.27;4.28;;;;;;;10.77;77.78;101280.59;5026151;28;20470;-51
2022/05/05 06:20:45;;;;;;;14.30;4.47;;;;;;;10.90;77.67;101275.34;5011244;28;20074;-51
2022/05/05 06:23:11;;;;;;;13.50;3.90;;;;;;;10.90;77.15;101279.88;5011803;28;20026;-51
2022/05/05 06:25:38;;;;;;;11.65;3.80;;;;;;;10.84;76.73;101285.00;5011616;28;20486;-50
2022/05/05 06:28:04;;;;;;;8.82;3.65;;;;;;;10.71;76.84;101282.22;5012185;28;20541;-51
2022/05/05 06:30:31;;;;;;;14.07;3.40;;;;;;;10.52;77.82;101282.91;5011295;28;20030;-52
2022/05/05 06:32:57;;;;;;;16.13;4.80;;;;;;;10.70;77.00;101283.25;5010864;28;20121;-52
2022/05/05 06:35:24;;;;;;;10.93;5.00;;;;;;;10.78;76.89;101272.41;5011160;28;20036;-51
2022/05/05 06:37:51;;;;;;;14.35;4.80;;;;;;;10.81;77.04;101271.16;5011189;28;20014;-51
2022/05/05 06:40:18;;;;;;;19.60;5.28;;;;;;;10.86;76.70;101289.31;5011390;28;20041;-51
2022/05/05 06:42:44;;;;;;;10.88;4.13;;;;;;;10.86;75.96;101300.03;5011337;28;20189;-51
2022/05/05 06:45:11;;;;;;;16.70;4.53;;;;;;;10.74;76.65;101292.53;5011695;28;20434;-51
2022/05/05 06:47:37;;;;;;;13.48;4.10;;;;;;;10.66;77.18;101305.25;5014543;28;20030;-51
2022/05/05 06:50:04;;;;;;;11.45;4.65;;;;;;;10.67;77.47;101293.53;5014976;28;20144;-51
2022/05/05 06:52:30;;;;;;;14.98;5.53;;;;;;;10.77;76.63;101302.88;5014666;28;20030;-51
2022/05/05 06:54:57;;;;;;;14.77;4.80;;;;;;;10.79;76.72;101294.63;5023036;28;20450;-52
2022/05/05 06:57:23;;;;;;;11.30;4.35;;;;;;;10.82;75.90;101295.06;5014653;28;20030;-52
2022/05/05 06:59:49;;;;;;;9.00;4.88;;;;;;;10.85;75.58;101293.84;5014707;28;20062;-51
2022/05/05 07:02:16;;;;;;;14.05;4.28;;;;;;;10.86;75.20;101289.31;5015587;28;20033;-50
2022/05/05 07:07:27;;;;;;;11.57;4.07;;;;;;;10.80;76.86;101294.44;5014721;28;20029;-52
2022/05/05 07:12:38;;;;;;;14.00;4.77;;;;;;;10.68;77.18;101309.41;5054215;28;20386;-51
2022/05/05 07:15:06;;;;;;;12.00;4.32;;;;;;;10.66;77.54;101297.22;5053805;28;20078;-50
2022/05/05 07:17:33;;;;;;;16.48;5.00;;;;;;;10.74;76.83;101292.53;5048063;28;20044;-51
2022/05/05 07:19:59;;;;;;;15.95;4.70;;;;;;;10.61;77.39;101284.44;5014231;28;20128;-51
2022/05/05 07:22:25;;;;;;;11.73;3.88;;;;;;;10.65;77.05;101298.25;5014110;28;20088;-52
2022/05/05 07:24:51;;;;;;;20.48;5.10;;;;;;;10.64;77.02;101297.41;5014146;28;20390;-51
2022/05/05 07:27:18;;;;;;;17.88;4.18;;;;;;;10.63;76.97;101308.31;5014213;28;20087;-52
2022/05/05 07:29:44;;;;;;;20.45;4.00;;;;;;;10.65;77.16;101308.94;5014103;28;20123;-50
2022/05/05 07:32:11;;;;;;;11.48;3.70;;;;;;;10.62;76.91;101293.28;5014007;28;20026;-52
2022/05/05 07:34:39;;;;;;;9.93;4.32;;;;;;;10.62;77.37;101301.31;5014687;28;20120;-50
2022/05/05 07:37:05;;;;;;;15.07;4.07;;;;;;;10.63;76.98;101289.59;5013815;28;20026;-52
2022/05/05 07:39:31;;;;;;;9.98;4.40;;;;;;;10.49;77.32;101284.16;5014177;28;20367;-51
2022/05/05 07:41:57;;;;;;;15.20;4.18;;;;;;;10.57;76.95;101288.50;5013679;28;20033;-52
2022/05/05 07:44:24;;;;;;;15.20;4.28;;;;;;;10.42;77.41;101285.94;5013919;28;20026;-51
2022/05/05 07:46:50;;;;;;;17.77;5.65;;;;;;;10.52;77.02;101289.09;5013623;28;20026;-51
2022/05/05 07:49:17;;;;;;;20.42;4.22;;;;;;;10.52;77.16;101283.75;5013859;28;20049;-51
2022/05/05 07:51:43;;;;;;;18.02;4.53;;;;;;;10.53;76.84;101277.38;5014419;28;20411;-52
2022/05/05 07:56:54;;;;;;;14.38;4.63;;;;;;;10.63;77.07;101279.69;5014007;28;20044;-52
2022/05/05 07:59:20;;;;;;;14.27;5.20;;;;;;;10.58;77.12;101288.31;5013121;28;20422;-51
2022/05/05 08:01:46;;;;;;;16.42;5.32;;;;;;;10.64;76.85;101291.22;5013378;28;20461;-52
2022/05/05 08:04:13;;;;;;;14.25;4.53;;;;;;;10.61;76.36;101292.47;5013207;28;20034;-51
2022/05/05 08:06:40;;;;;;;15.07;4.40;;;;;;;10.75;75.63;101296.88;5013765;28;20080;-51
2022/05/05 08:09:06;;;;;;;14.52;4.65;;;;;;;10.79;75.45;101300.00;5014498;28;20493;-51
2022/05/05 08:11:35;;;;;;;15.88;4.07;;;;;;;10.71;75.65;101294.78;5041495;28;20021;-51
2022/05/05 08:14:01;;;;;;;16.73;4.35;;;;;;;10.70;75.63;101296.63;5052679;28;20033;-52
2022/05/05 08:16:27;;;;;;;13.32;4.32;;;;;;;10.80;75.13;101298.97;5053165;28;20025;-51
2022/05/05 08:18:54;;;;;;;13.52;3.83;;;;;;;10.83;74.78;101307.44;5053063;28;20500;-50
2022/05/05 08:21:20;;;;;;;15.15;4.00;;;;;;;10.89;74.54;101310.38;5052545;28;20053;-50
2022/05/05 08:23:46;;;;;;;10.65;3.90;;;;;;;10.87;74.44;101305.19;5052778;28;20032;-51
2022/05/05 08:28:57;;;;;;;14.07;3.63;;;;;;;10.79;74.11;101298.16;5013483;28;20037;-51
2022/05/05 08:31:23;;;;;;;16.77;3.15;;;;;;;10.85;74.04;101299.22;5013181;28;20022;-51
2022/05/05 08:33:50;;;;;;;8.73;3.05;;;;;;;10.91;72.97;101302.94;5012942;28;20056;-52
2022/05/05 08:36:16;;;;;;;11.23;3.28;;;;;;;10.89;73.54;101297.81;5012692;28;20018;-51
2022/05/05 08:38:44;;;;;;;13.13;3.70;;;;;;;10.90;73.79;101287.91;5012814;28;20034;-52
2022/05/05 08:41:12;;;;;;;16.25;4.38;;;;;;;10.81;74.14;101296.09;5012993;28;20037;-52
2022/05/05 08:43:38;;;;;;;20.63;4.40;;;;;;;10.91;74.03;101297.59;5013407;28;20038;-51
2022/05/05 08:46:13;;;;;;;20.90;4.30;;;;;;;10.86;74.59;101295.50;5012522;28;20030;-51
2022/05/05 08:48:42;;;;;;;18.27;4.75;;;;;;;10.88;74.27;101301.47;5012754;28;20036;-51
2022/05/05 08:51:18;;;;;;;19.75;4.82;;;;;;;10.90;74.44;101303.97;5012862;28;20160;-52
2022/05/05 08:53:52;;;;;;;14.43;4.18;;;;;;;10.90;74.73;101290.59;5012247;28;20037;-51
2022/05/05 08:56:19;;;;;;;13.57;4.70;;;;;;;10.98;74.40;101285.88;5012813;28;20109;-51
2022/05/05 08:58:45;;;;;;;16.83;4.35;;;;;;;10.96;74.57;101305.88;5012564;28;20393;-51
2022/05/05 09:01:11;;;;;;;15.45;4.43;;;;;;;11.00;74.07;101307.97;5013381;28;20022;-52
2022/05/05 09:03:37;;;;;;;15.50;4.55;;;;;;;11.13;73.90;101312.56;5012342;28;20033;-52
2022/05/05 09:06:05;;;;;;;17.90;4.35;;;;;;;11.13;73.69;101317.91;5024514;28;20099;-51
2022/05/05 09:08:32;;;;;;;18.60;4.85;;;;;;;11.06;73.98;101307.16;5032060;28;20049;-51
2022/05/05 09:11:01;;;;;;;13.90;4.47;;;;;;;11.10;74.26;101297.72;5031468;28;20037;-51
2022/05/05 09:13:30;;;;;;;19.77;5.07;;;;;;;11.04;74.60;101319.91;5031671;28;20025;-49
2022/05/05 09:15:57;;;;;;;19.27;4.57;;;;;;;11.02;74.69;101337.22;5031853;28;20466;-52
2022/05/05 09:18:32;;;;;;;20.00;4.90;;;;;;;10.98;74.87;101338.63;5014060;28;20022;-52
2022/05/05 09:21:02;;;;;;;19.08;5.05;;;;;;;10.97;75.17;101328.94;5012023;28;20406;-51
2022/05/05 09:23:31;;;;;;;18.63;4.95;;;;;;;11.04;74.67;101329.81;5012021;28;20040;-50
2022/05/05 09:25:59;;;;;;;19.40;5.20;;;;;;;11.00;74.27;101331.25;5011897;28;20037;-52
2022/05/05 09:28:32;;;;;;;20.42;4.13;;;;;;;11.12;73.85;101324.31;5011964;28;20044;-51
2022/05/05 09:31:07;;;;;;;15.93;4.55;;;;;;;11.06;74.11;101317.06;5012220;28;20092;-50
2022/05/05 09:33:43;;;;;;;15.47;3.83;;;;;;;11.04;73.87;101311.88;5014339;28;20040;-49
2022/05/05 09:36:17;;;;;;;16.23;4.47;;;;;;;11.03;73.52;101320.94;5031641;28;20025;-51
2022/05/05 09:39:02;;;;;;;15.60;4.25;;;;;;;11.02;74.39;101305.91;5031773;28;20494;-51
2022/05/05 09:41:33;;;;;;;14.48;4.57;;;;;;;10.94;74.26;101314.09;5031196;28;20034;-50
2022/05/05 09:44:26;;;;;;;14.88;4.45;;;;;;;11.15;73.43;101307.00;5031329;28;20029;-51
2022/05/05 09:46:52;;;;;;;15.35;4.18;;;;;;;11.12;73.83;101305.56;5028739;28;20029;-50
2022/05/05 09:49:20;;;;;;;21.10;4.45;;;;;;;11.15;73.73;101321.22;5031578;28;20084;-51
2022/05/05 09:57:43;;;;;;;10.07;3.20;;;;;;;11.16;73.83;101338.97;5011711;28;20036;-51
2022/05/05 10:06:06;;;;;;;16.45;3.75;;;;;;;11.18;73.86;101318.16;5011932;28;20045;-51
2022/05/05 10:08:45;;;;;;;10.80;3.17;;;;;;;11.26;73.33;101334.06;5012311;28;20026;-52
2022/05/05 10:11:15;;;;;;;13.57;3.22;;;;;;;11.26;73.07;101328.69;5033805;28;20389;-50
2022/05/05 10:13:43;;;;;;;12.70;3.50;;;;;;;11.24;73.22;101330.75;5050966;28;20037;-52
2022/05/05 10:16:09;;;;;;;15.82;3.50;;;;;;;11.13;73.78;101327.81;5051152;28;20470;-51
2022/05/05 10:18:38;;;;;;;17.23;3.65;;;;;;;11.22;73.95;101322.09;5051198;28;20035;-52
2022/05/05 10:21:21;;;;;;;13.68;4.32;;;;;;;11.16;74.30;101322.03;5052400;28;20421;-52
2022/05/05 10:23:52;;;;;;;13.48;4.05;;;;;;;11.17;74.69;101321.03;5055485;28;20039;-51
2022/05/05 10:26:24;;;;;;;15.15;3.88;;;;;;;11.02;75.25;101319.28;5020304;28;20029;-51
2022/05/05 10:28:50;;;;;;;14.93;5.05;;;;;;;10.98;75.27;101323.38;5015176;28;20043;-52
2022/05/05 10:31:31;;;;;;;15.60;3.95;;;;;;;11.04;74.57;101327.13;5015152;28;20022;-49
2022/05/05 10:34:02;;;;;;;15.70;3.55;;;;;;;11.19;73.78;101338.56;5015121;28;20479;-51
2022/05/05 10:36:29;;;;;;;15.65;4.78;;;;;;;11.22;73.90;101346.22;5015250;28;20026;-48
2022/05/05 10:38:57;;;;;;;15.50;4.28;;;;;;;11.20;74.80;101337.53;5014941;28;20479;-52
2022/05/05 10:41:39;;;;;;;15.15;4.35;;;;;;;11.29;73.88;101332.84;5015746;28;20030;-51
2022/05/05 10:44:22;;;;;;;14.30;4.18;;;;;;;11.30;73.66;101350.56;5015166;28;20503;-52
2022/05/05 10:46:52;;;;;;;15.63;3.72;;;;;;;11.30;73.24;101361.28;5014960;28;20030;-52
2022/05/05 10:49:40;;;;;;;16.00;4.53;;;;;;;11.29;73.79;101355.09;5015158;28;20026;-52
2022/05/05 10:52:11;;;;;;;15.10;4.25;;;;;;;11.30;74.39;101363.97;5014850;28;20048;-52
2022/05/05 10:54:38;;;;;;;16.13;4.22;;;;;;;11.50;72.82;101377.50;5014420;28;20120;-51
2022/05/05 10:57:25;;;;;;;18.42;4.25;;;;;;;11.56;72.60;101382.06;5015225;28;20512;-51
2022/05/05 11:00:13;;;;;;;21.25;4.00;;;;;;;11.57;72.48;101383.69;5015847;28;20029;-52
2022/05/05 11:03:03;;;;;;;19.98;4.93;;;;;;;11.62;72.44;101391.97;5014993;28;20037;-53
2022/05/05 11:05:35;;;;;;;13.25;3.58;;;;;;;11.66;72.03;101385.19;5027526;28;20034;-52
2022/05/05 11:08:14;;;;;;;19.20;3.72;;;;;;;11.75;71.35;101391.19;5034493;28;20109;-52
2022/05/05 11:13:45;;;;;;;18.27;3.95;;;;;;;11.84;71.35;101393.53;5034300;28;20163;-52
2022/05/05 11:22:07;;;;;;;12.48;3.63;;;;;;;11.88;70.53;101407.38;5014229;28;20476;-52
2022/05/05 11:24:34;;;;;;;12.98;3.92;;;;;;;11.84;71.03;101396.22;5014076;28;20033;-51
2022/05/05 11:27:01;;;;;;;12.85;3.95;;;;;;;11.77;71.19;101395.34;5014393;28;20030;-51
2022/05/05 11:29:31;;;;;;;10.90;3.67;;;;;;;11.79;71.00;101400.50;5014386;28;20033;-51
2022/05/05 11:32:02;;;;;;;13.55;3.53;;;;;;;11.93;70.46;101398.72;5013663;28;20032;-52
2022/05/05 11:34:41;;;;;;;13.60;3.55;;;;;;;11.97;70.00;101387.38;5031747;28;20103;-51
2022/05/05 11:37:09;;;;;;;12.63;3.40;;;;;;;12.09;70.15;101401.88;5033715;28;20033;-50
2022/05/05 11:39:36;;;;;;;11.27;3.28;;;;;;;11.95;70.98;101388.63;5034123;28;20056;-51
2022/05/05 11:42:04;;;;;;;12.98;3.60;;;;;;;12.00;70.60;101402.28;5033894;28;20025;-51
2022/05/05 11:44:30;;;;;;;14.85;3.60;;;;;;;12.00;70.76;101402.28;5033962;28;20033;-49
2022/05/05 11:47:08;;;;;;;15.52;3.92;;;;;;;12.01;70.70;101393.19;5032450;28;20037;-51
2022/05/05 11:49:35;;;;;;;7.40;3.00;;;;;;;11.98;70.68;101401.63;5032856;28;20041;-50
2022/05/05 11:52:02;;;;;;;12.88;3.67;;;;;;;11.98;70.80;101391.72;5033466;28;20033;-51
2022/05/05 11:54:30;;;;;;;16.55;3.78;;;;;;;12.06;70.28;101404.16;5028900;28;20017;-50
2022/05/05 11:56:57;;;;;;;8.55;3.55;;;;;;;12.08;70.18;101397.53;5022769;28;20033;-52
2022/05/05 12:02:10;;;;;;;19.25;4.32;;;;;;;12.05;70.51;101383.72;5031266;28;20044;-50
2022/05/05 12:04:42;;;;;;;12.65;3.67;;;;;;;12.09;70.40;101399.19;5014995;28;20434;-51
2022/05/05 12:07:18;;;;;;;9.30;3.60;;;;;;;12.20;70.24;101388.88;5014194;28;20038;-52
2022/05/05 12:09:46;;;;;;;12.77;3.50;;;;;;;12.22;69.99;101402.94;5013327;28;20324;-52